sensor_id;sensor_type;location;lat;lon;timestamp;pressure;altitude;pressure_sealevel;temperature;humidity
55456;BME280;63021;52.836;6.376;2023-12-14T00:01:26;101097.84;;;5.06;83.65
55456;BME280;63021;52.836;6.376;2023-12-14T00:03:52;101100.47;;;5.06;83.64
55456;BME280;63021;52.836;6.376;2023-12-14T00:06:17;101101.78;;;5.00;83.79
55456;BME280;63021;52.836;6.376;2023-12-14T00:08:42;101123.41;;;5.05;83.06
55456;BME280;63021;52.836;6.376;2023-12-14T00:11:09;101115.03;;;4.98;83.72
55456;BME280;63021;52.836;6.376;2023-12-14T00:13:35;101138.59;;;5.01;83.46
55456;BME280;63021;52.836;6.376;2023-12-14T00:16:01;101116.72;;;4.99;83.09
55456;BME280;63021;52.836;6.376;2023-12-14T00:18:27;101132.56;;;4.99;83.52
55456;BME280;63021;52.836;6.376;2023-12-14T00:20:53;101147.78;;;4.96;83.21
55456;BME280;63021;52.836;6.376;2023-12-14T00:23:19;101142.50;;;4.96;83.10
55456;BME280;63021;52.836;6.376;2023-12-14T00:25:45;101169.50;;;4.99;83.20
55456;BME280;63021;52.836;6.376;2023-12-14T00:28:10;101134.28;;;5.00;83.30
55456;BME280;63021;52.836;6.376;2023-12-14T00:30:36;101160.66;;;5.00;83.05
55456;BME280;63021;52.836;6.376;2023-12-14T00:33:01;101141.34;;;5.00;83.43
55456;BME280;63021;52.836;6.376;2023-12-14T00:35:27;101157.06;;;5.01;83.29
55456;BME280;63021;52.836;6.376;2023-12-14T00:37:52;101150.19;;;4.99;83.33
55456;BME280;63021;52.836;6.376;2023-12-14T00:40:18;101160.66;;;5.00;82.94
55456;BME280;63021;52.836;6.376;2023-12-14T00:42:43;101144.16;;;4.97;82.89
55456;BME280;63021;52.836;6.376;2023-12-14T00:45:09;101176.69;;;4.97;83.44
55456;BME280;63021;52.836;6.376;2023-12-14T00:47:34;101160.88;;;4.97;83.20
55456;BME280;63021;52.836;6.376;2023-12-14T00:50:00;101174.16;;;4.96;82.91
55456;BME280;63021;52.836;6.376;2023-12-14T00:52:25;101177.72;;;4.95;82.91
55456;BME280;63021;52.836;6.376;2023-12-14T00:54:51;101167.06;;;4.96;83.21
55456;BME280;63021;52.836;6.376;2023-12-14T00:57:16;101168.88;;;4.96;83.36
55456;BME280;63021;52.836;6.376;2023-12-14T00:59:42;101189.13;;;4.95;83.20
55456;BME280;63021;52.836;6.376;2023-12-14T01:02:07;101172.22;;;4.85;83.37
55456;BME280;63021;52.836;6.376;2023-12-14T01:04:32;101193.97;;;4.89;82.89
55456;BME280;63021;52.836;6.376;2023-12-14T01:06:58;101196.72;;;4.87;82.96
55456;BME280;63021;52.836;6.376;2023-12-14T01:09:23;101229.94;;;4.90;82.87
55456;BME280;63021;52.836;6.376;2023-12-14T01:11:49;101206.41;;;4.86;82.55
55456;BME280;63021;52.836;6.376;2023-12-14T01:14:15;101214.22;;;4.88;82.81
55456;BME280;63021;52.836;6.376;2023-12-14T01:16:40;101218.66;;;4.88;83.29
55456;BME280;63021;52.836;6.376;2023-12-14T01:19:06;101215.25;;;4.85;83.09
55456;BME280;63021;52.836;6.376;2023-12-14T01:21:32;101220.47;;;4.87;82.75
55456;BME280;63021;52.836;6.376;2023-12-14T01:23:57;101232.78;;;4.86;82.53
55456;BME280;63021;52.836;6.376;2023-12-14T01:26:23;101231.19;;;4.84;82.64
55456;BME280;63021;52.836;6.376;2023-12-14T01:28:48;101243.53;;;4.83;82.86
55456;BME280;63021;52.836;6.376;2023-12-14T01:31:14;101254.09;;;4.83;82.38
55456;BME280;63021;52.836;6.376;2023-12-14T01:33:39;101249.97;;;4.79;82.78
55456;BME280;63021;52.836;6.376;2023-12-14T01:36:05;101259.47;;;4.82;82.44
55456;BME280;63021;52.836;6.376;2023-12-14T01:38:30;101269.19;;;4.81;82.95
55456;BME280;63021;52.836;6.376;2023-12-14T01:40:56;101270.97;;;4.81;82.33
55456;BME280;63021;52.836;6.376;2023-12-14T01:43:21;101286.78;;;4.81;82.52
55456;BME280;63021;52.836;6.376;2023-12-14T01:45:47;101275.72;;;4.76;82.86
55456;BME280;63021;52.836;6.376;2023-12-14T01:48:12;101281.72;;;4.78;82.54
55456;BME280;63021;52.836;6.376;2023-12-14T01:50:38;101294.81;;;4.79;82.38
55456;BME280;63021;52.836;6.376;2023-12-14T01:53:03;101295.84;;;4.77;82.53
55456;BME280;63021;52.836;6.376;2023-12-14T01:55:29;101299.34;;;4.77;82.45
55456;BME280;63021;52.836;6.376;2023-12-14T01:57:55;101289.63;;;4.78;82.87
55456;BME280;63021;52.836;6.376;2023-12-14T02:00:30;101284.47;;;4.76;82.73
55456;BME280;63021;52.836;6.376;2023-12-14T02:02:59;101285.50;;;4.74;82.72
55456;BME280;63021;52.836;6.376;2023-12-14T02:05:25;101313.56;;;4.75;82.20
55456;BME280;63021;52.836;6.376;2023-12-14T02:07:50;101298.16;;;4.68;82.51
55456;BME280;63021;52.836;6.376;2023-12-14T02:10:16;101301.53;;;4.71;82.30
55456;BME280;63021;52.836;6.376;2023-12-14T02:12:41;101305.97;;;4.70;82.58
55456;BME280;63021;52.836;6.376;2023-12-14T02:15:07;101317.34;;;4.71;82.49
55456;BME280;63021;52.836;6.376;2023-12-14T02:17:32;101332.22;;;4.72;82.36
55456;BME280;63021;52.836;6.376;2023-12-14T02:19:58;101322.72;;;4.69;82.63
55456;BME280;63021;52.836;6.376;2023-12-14T02:22:24;101333.16;;;4.71;82.45
55456;BME280;63021;52.836;6.376;2023-12-14T02:24:50;101334.88;;;4.72;82.40
55456;BME280;63021;52.836;6.376;2023-12-14T02:27:15;101334.88;;;4.72;82.13
55456;BME280;63021;52.836;6.376;2023-12-14T02:29:41;101337.81;;;4.67;82.83
55456;BME280;63021;52.836;6.376;2023-12-14T02:32:06;101344.56;;;4.71;82.03
55456;BME280;63021;52.836;6.376;2023-12-14T02:34:31;101350.69;;;4.72;82.50
55456;BME280;63021;52.836;6.376;2023-12-14T02:36:57;101353.63;;;4.67;82.10
55456;BME280;63021;52.836;6.376;2023-12-14T02:39:22;101345.63;;;4.68;82.03
55456;BME280;63021;52.836;6.376;2023-12-14T02:41:48;101345.97;;;4.62;82.28
55456;BME280;63021;52.836;6.376;2023-12-14T02:44:13;101341.56;;;4.63;82.02
55456;BME280;63021;52.836;6.376;2023-12-14T02:46:38;101340.81;;;4.61;82.24
55456;BME280;63021;52.836;6.376;2023-12-14T02:49:04;101355.31;;;4.68;82.05
55456;BME280;63021;52.836;6.376;2023-12-14T02:51:29;101363.31;;;4.66;81.87
55456;BME280;63021;52.836;6.376;2023-12-14T02:53:54;101361.59;;;4.65;82.21
55456;BME280;63021;52.836;6.376;2023-12-14T02:56:22;101366.88;;;4.65;82.32
55456;BME280;63021;52.836;6.376;2023-12-14T02:58:48;101374.78;;;4.65;82.06
55456;BME280;63021;52.836;6.376;2023-12-14T03:01:19;101363.59;;;4.62;81.92
55456;BME280;63021;52.836;6.376;2023-12-14T03:03:45;101366.34;;;4.60;81.98
55456;BME280;63021;52.836;6.376;2023-12-14T03:06:11;101375.94;;;4.61;81.55
55456;BME280;63021;52.836;6.376;2023-12-14T03:08:36;101363.03;;;4.57;81.98
55456;BME280;63021;52.836;6.376;2023-12-14T03:11:02;101364.53;;;4.61;81.81
55456;BME280;63021;52.836;6.376;2023-12-14T03:13:28;101382.16;;;4.60;81.86
55456;BME280;63021;52.836;6.376;2023-12-14T03:15:53;101370.78;;;4.60;81.76
55456;BME280;63021;52.836;6.376;2023-12-14T03:18:19;101376.97;;;4.59;81.57
55456;BME280;63021;52.836;6.376;2023-12-14T03:20:44;101382.06;;;4.62;81.61
55456;BME280;63021;52.836;6.376;2023-12-14T03:23:09;101393.44;;;4.62;81.94
55456;BME280;63021;52.836;6.376;2023-12-14T03:25:35;101420.69;;;4.63;81.70
55456;BME280;63021;52.836;6.376;2023-12-14T03:28:00;101394.22;;;4.64;81.77
55456;BME280;63021;52.836;6.376;2023-12-14T03:30:26;101401.56;;;4.59;81.80
55456;BME280;63021;52.836;6.376;2023-12-14T03:32:52;101398.19;;;4.57;81.59
55456;BME280;63021;52.836;6.376;2023-12-14T03:35:17;101408.63;;;4.59;81.84
55456;BME280;63021;52.836;6.376;2023-12-14T03:37:43;101412.19;;;4.58;81.69
55456;BME280;63021;52.836;6.376;2023-12-14T03:40:08;101416.53;;;4.59;81.58
55456;BME280;63021;52.836;6.376;2023-12-14T03:42:35;101425.28;;;4.59;81.78
55456;BME280;63021;52.836;6.376;2023-12-14T03:45:00;101423.59;;;4.58;81.69
55456;BME280;63021;52.836;6.376;2023-12-14T03:47:26;101434.22;;;4.57;81.64
55456;BME280;63021;52.836;6.376;2023-12-14T03:49:51;101422.34;;;4.64;82.04
55456;BME280;63021;52.836;6.376;2023-12-14T03:52:16;101439.25;;;4.61;81.38
55456;BME280;63021;52.836;6.376;2023-12-14T03:54:42;101443.84;;;4.58;81.63
55456;BME280;63021;52.836;6.376;2023-12-14T03:57:07;101430.56;;;4.59;81.53
55456;BME280;63021;52.836;6.376;2023-12-14T03:59:33;101430.47;;;4.61;81.72
55456;BME280;63021;52.836;6.376;2023-12-14T04:01:59;101453.34;;;4.60;81.72
55456;BME280;63021;52.836;6.376;2023-12-14T04:04:24;101431.50;;;4.58;81.71
55456;BME280;63021;52.836;6.376;2023-12-14T04:06:50;101421.31;;;4.52;81.92
55456;BME280;63021;52.836;6.376;2023-12-14T04:09:16;101441.97;;;4.60;81.90
55456;BME280;63021;52.836;6.376;2023-12-14T04:11:42;101440.06;;;4.62;81.94
55456;BME280;63021;52.836;6.376;2023-12-14T04:14:07;101439.25;;;4.61;81.85
55456;BME280;63021;52.836;6.376;2023-12-14T04:16:34;101442.63;;;4.63;81.86
55456;BME280;63021;52.836;6.376;2023-12-14T04:19:00;101449.50;;;4.66;81.71
55456;BME280;63021;52.836;6.376;2023-12-14T04:21:25;101449.50;;;4.66;81.75
55456;BME280;63021;52.836;6.376;2023-12-14T04:23:50;101447.69;;;4.66;81.77
55456;BME280;63021;52.836;6.376;2023-12-14T04:26:16;101455.63;;;4.66;81.99
55456;BME280;63021;52.836;6.376;2023-12-14T04:28:41;101453.16;;;4.63;81.84
55456;BME280;63021;52.836;6.376;2023-12-14T04:31:09;101463.53;;;4.66;81.97
55456;BME280;63021;52.836;6.376;2023-12-14T04:33:35;101474.06;;;4.66;82.02
55456;BME280;63021;52.836;6.376;2023-12-14T04:36:01;101477.59;;;4.67;81.61
55456;BME280;63021;52.836;6.376;2023-12-14T04:38:26;101475.97;;;4.64;81.99
55456;BME280;63021;52.836;6.376;2023-12-14T04:40:51;101467.38;;;4.61;81.99
55456;BME280;63021;52.836;6.376;2023-12-14T04:43:17;101477.50;;;4.68;81.67
55456;BME280;63021;52.836;6.376;2023-12-14T04:45:43;101490.75;;;4.67;82.05
55456;BME280;63021;52.836;6.376;2023-12-14T04:48:09;101486.72;;;4.61;81.40
55456;BME280;63021;52.836;6.376;2023-12-14T04:50:34;101496.88;;;4.67;81.79
55456;BME280;63021;52.836;6.376;2023-12-14T04:53:00;101498.75;;;4.65;81.63
55456;BME280;63021;52.836;6.376;2023-12-14T04:55:25;101519.84;;;4.65;81.82
55456;BME280;63021;52.836;6.376;2023-12-14T04:57:51;101510.25;;;4.64;81.82
55456;BME280;63021;52.836;6.376;2023-12-14T05:00:16;101515.53;;;4.64;81.79
55456;BME280;63021;52.836;6.376;2023-12-14T05:02:46;101521.72;;;4.63;81.69
55456;BME280;63021;52.836;6.376;2023-12-14T05:05:13;101527.84;;;4.64;81.78
55456;BME280;63021;52.836;6.376;2023-12-14T05:07:38;101529.56;;;4.65;81.68
55456;BME280;63021;52.836;6.376;2023-12-14T05:10:04;101526.06;;;4.64;81.77
55456;BME280;63021;52.836;6.376;2023-12-14T05:12:30;101543.56;;;4.65;81.74
55456;BME280;63021;52.836;6.376;2023-12-14T05:14:57;101554.22;;;4.64;81.60
55456;BME280;63021;52.836;6.376;2023-12-14T05:17:22;101568.38;;;4.63;82.00
55456;BME280;63021;52.836;6.376;2023-12-14T05:19:47;101549.03;;;4.62;81.70
55456;BME280;63021;52.836;6.376;2023-12-14T05:22:13;101559.41;;;4.65;81.29
55456;BME280;63021;52.836;6.376;2023-12-14T05:24:38;101562.91;;;4.66;81.50
55456;BME280;63021;52.836;6.376;2023-12-14T05:27:04;101557.72;;;4.64;81.47
55456;BME280;63021;52.836;6.376;2023-12-14T05:29:29;101555.84;;;4.66;81.53
55456;BME280;63021;52.836;6.376;2023-12-14T05:31:55;101566.28;;;4.68;81.60
55456;BME280;63021;52.836;6.376;2023-12-14T05:34:20;101569.03;;;4.66;81.56
55456;BME280;63021;52.836;6.376;2023-12-14T05:36:45;101583.13;;;4.65;82.07
55456;BME280;63021;52.836;6.376;2023-12-14T05:39:11;101595.47;;;4.65;81.57
55456;BME280;63021;52.836;6.376;2023-12-14T05:41:42;101587.84;;;4.60;81.67
55456;BME280;63021;52.836;6.376;2023-12-14T05:44:08;101597.28;;;4.64;81.60
55456;BME280;63021;52.836;6.376;2023-12-14T05:46:33;101595.94;;;4.57;81.63
55456;BME280;63021;52.836;6.376;2023-12-14T05:48:58;101608.66;;;4.65;81.42
55456;BME280;63021;52.836;6.376;2023-12-14T05:51:31;101613.03;;;4.66;81.79
55456;BME280;63021;52.836;6.376;2023-12-14T05:53:57;101609.50;;;4.65;81.73
55456;BME280;63021;52.836;6.376;2023-12-14T05:56:24;101602.91;;;4.58;81.63
55456;BME280;63021;52.836;6.376;2023-12-14T05:58:50;101624.50;;;4.65;81.41
55456;BME280;63021;52.836;6.376;2023-12-14T06:01:18;101625.53;;;4.62;81.87
55456;BME280;63021;52.836;6.376;2023-12-14T06:03:44;101625.59;;;4.61;81.46
55456;BME280;63021;52.836;6.376;2023-12-14T06:06:11;101635.88;;;4.65;81.67
55456;BME280;63021;52.836;6.376;2023-12-14T06:08:37;101637.59;;;4.66;82.23
55456;BME280;63021;52.836;6.376;2023-12-14T06:11:03;101657.84;;;4.66;81.75
55456;BME280;63021;52.836;6.376;2023-12-14T06:13:31;101670.13;;;4.67;81.61
55456;BME280;63021;52.836;6.376;2023-12-14T06:15:56;101646.09;;;4.72;81.62
55456;BME280;63021;52.836;6.376;2023-12-14T06:18:21;101641.84;;;4.69;81.46
55456;BME280;63021;52.836;6.376;2023-12-14T06:20:47;101660.22;;;4.71;81.63
55456;BME280;63021;52.836;6.376;2023-12-14T06:23:12;101660.59;;;4.64;81.59
55456;BME280;63021;52.836;6.376;2023-12-14T06:25:37;101676.88;;;4.71;81.70
55456;BME280;63021;52.836;6.376;2023-12-14T06:28:03;101641.53;;;4.59;81.64
55456;BME280;63021;52.836;6.376;2023-12-14T06:30:28;101682.44;;;4.66;81.63
55456;BME280;63021;52.836;6.376;2023-12-14T06:32:54;101689.41;;;4.67;81.01
55456;BME280;63021;52.836;6.376;2023-12-14T06:35:19;101700.22;;;4.63;81.13
55456;BME280;63021;52.836;6.376;2023-12-14T06:37:45;101705.31;;;4.66;81.57
55456;BME280;63021;52.836;6.376;2023-12-14T06:40:10;101679.88;;;4.65;81.47
55456;BME280;63021;52.836;6.376;2023-12-14T06:42:36;101706.16;;;4.66;81.02
55456;BME280;63021;52.836;6.376;2023-12-14T06:45:02;101707.09;;;4.65;81.43
55456;BME280;63021;52.836;6.376;2023-12-14T06:47:28;101701.25;;;4.60;81.21
55456;BME280;63021;52.836;6.376;2023-12-14T06:49:53;101727.25;;;4.66;80.99
55456;BME280;63021;52.836;6.376;2023-12-14T06:52:19;101706.94;;;4.68;81.61
55456;BME280;63021;52.836;6.376;2023-12-14T06:54:44;101714.84;;;4.68;80.88
55456;BME280;63021;52.836;6.376;2023-12-14T06:57:10;101706.06;;;4.68;81.24
55456;BME280;63021;52.836;6.376;2023-12-14T06:59:36;101720.13;;;4.68;80.72
55456;BME280;63021;52.836;6.376;2023-12-14T07:02:01;101704.53;;;4.64;80.68
55456;BME280;63021;52.836;6.376;2023-12-14T07:04:26;101706.06;;;4.68;81.11
55456;BME280;63021;52.836;6.376;2023-12-14T07:06:52;101693.06;;;4.65;80.99
55456;BME280;63021;52.836;6.376;2023-12-14T07:09:18;101706.06;;;4.68;80.55
55456;BME280;63021;52.836;6.376;2023-12-14T07:11:44;101715.69;;;4.69;81.00
55456;BME280;63021;52.836;6.376;2023-12-14T07:14:09;101723.69;;;4.67;80.63
55456;BME280;63021;52.836;6.376;2023-12-14T07:16:35;101721.16;;;4.66;80.45
55456;BME280;63021;52.836;6.376;2023-12-14T07:19:01;101733.47;;;4.65;80.19
55456;BME280;63021;52.836;6.376;2023-12-14T07:21:26;101733.81;;;4.59;80.54
55456;BME280;63021;52.836;6.376;2023-12-14T07:23:52;101744.72;;;4.69;80.48
55456;BME280;63021;52.836;6.376;2023-12-14T07:26:17;101742.06;;;4.69;80.45
55456;BME280;63021;52.836;6.376;2023-12-14T07:28:43;101751.88;;;4.67;80.19
55456;BME280;63021;52.836;6.376;2023-12-14T07:31:08;101752.63;;;4.69;80.25
55456;BME280;63021;52.836;6.376;2023-12-14T07:33:33;101759.59;;;4.70;80.48
55456;BME280;63021;52.836;6.376;2023-12-14T07:36:00;101762.44;;;4.67;80.61
55456;BME280;63021;52.836;6.376;2023-12-14T07:38:26;101765.91;;;4.67;80.62
55456;BME280;63021;52.836;6.376;2023-12-14T07:40:51;101765.72;;;4.71;80.49
55456;BME280;63021;52.836;6.376;2023-12-14T07:43:17;101773.56;;;4.72;80.29
55456;BME280;63021;52.836;6.376;2023-12-14T07:45:43;101789.38;;;4.72;80.30
55456;BME280;63021;52.836;6.376;2023-12-14T07:48:09;101780.81;;;4.68;80.68
55456;BME280;63021;52.836;6.376;2023-12-14T07:50:34;101795.44;;;4.74;80.71
55456;BME280;63021;52.836;6.376;2023-12-14T07:53:00;101828.09;;;4.72;80.48
55456;BME280;63021;52.836;6.376;2023-12-14T07:55:25;101819.25;;;4.73;79.99
55456;BME280;63021;52.836;6.376;2023-12-14T07:57:51;101803.50;;;4.71;80.32
55456;BME280;63021;52.836;6.376;2023-12-14T08:00:16;101803.44;;;4.73;80.59
55456;BME280;63021;52.836;6.376;2023-12-14T08:02:42;101817.38;;;4.75;80.98
55456;BME280;63021;52.836;6.376;2023-12-14T08:05:07;101821.81;;;4.74;80.62
55456;BME280;63021;52.836;6.376;2023-12-14T08:07:34;101816.78;;;4.69;80.50
55456;BME280;63021;52.836;6.376;2023-12-14T08:10:00;101833.22;;;4.75;80.28
55456;BME280;63021;52.836;6.376;2023-12-14T08:12:25;101828.69;;;4.77;80.79
55456;BME280;63021;52.836;6.376;2023-12-14T08:14:51;101843.75;;;4.75;80.60
55456;BME280;63021;52.836;6.376;2023-12-14T08:17:17;101848.09;;;4.76;80.61
55456;BME280;63021;52.836;6.376;2023-12-14T08:19:43;101872.69;;;4.76;80.67
55456;BME280;63021;52.836;6.376;2023-12-14T08:22:09;101859.50;;;4.76;80.39
55456;BME280;63021;52.836;6.376;2023-12-14T08:24:40;101856.94;;;4.75;80.81
55456;BME280;63021;52.836;6.376;2023-12-14T08:27:06;101853.69;;;4.69;80.75
55456;BME280;63021;52.836;6.376;2023-12-14T08:29:31;101864.78;;;4.76;80.53
55456;BME280;63021;52.836;6.376;2023-12-14T08:31:56;101854.97;;;4.78;80.58
55456;BME280;63021;52.836;6.376;2023-12-14T08:34:25;101857.69;;;4.77;81.01
55456;BME280;63021;52.836;6.376;2023-12-14T08:36:50;101862.31;;;4.73;80.39
55456;BME280;63021;52.836;6.376;2023-12-14T08:39:15;101894.50;;;4.80;80.52
55456;BME280;63021;52.836;6.376;2023-12-14T08:41:41;101875.06;;;4.81;80.80
55456;BME280;63021;52.836;6.376;2023-12-14T08:44:07;101866.47;;;4.77;80.83
55456;BME280;63021;52.836;6.376;2023-12-14T08:46:44;101873.97;;;4.85;80.96
55456;BME280;63021;52.836;6.376;2023-12-14T08:49:10;101872.25;;;4.84;81.01
55456;BME280;63021;52.836;6.376;2023-12-14T08:51:36;101865.31;;;4.83;80.76
55456;BME280;63021;52.836;6.376;2023-12-14T08:54:02;101873.78;;;4.88;80.43
55456;BME280;63021;52.836;6.376;2023-12-14T08:56:27;101874.66;;;4.89;80.75
55456;BME280;63021;52.836;6.376;2023-12-14T08:58:53;101878.06;;;4.91;80.71
55456;BME280;63021;52.836;6.376;2023-12-14T09:01:22;101888.53;;;4.92;81.00
55456;BME280;63021;52.836;6.376;2023-12-14T09:03:48;101883.41;;;4.89;80.33
55456;BME280;63021;52.836;6.376;2023-12-14T09:06:16;101910.56;;;4.91;80.81
55456;BME280;63021;52.836;6.376;2023-12-14T09:08:41;101897.38;;;4.91;80.88
55456;BME280;63021;52.836;6.376;2023-12-14T09:11:07;101903.44;;;4.93;80.71
55456;BME280;63021;52.836;6.376;2023-12-14T09:13:35;101919.09;;;4.96;80.88
55456;BME280;63021;52.836;6.376;2023-12-14T09:16:00;101906.81;;;4.95;80.70
55456;BME280;63021;52.836;6.376;2023-12-14T09:18:25;101920.72;;;4.99;80.82
55456;BME280;63021;52.836;6.376;2023-12-14T09:20:51;101925.81;;;5.02;80.56
55456;BME280;63021;52.836;6.376;2023-12-14T09:23:17;101926.75;;;5.01;81.17
55456;BME280;63021;52.836;6.376;2023-12-14T09:25:44;101901.88;;;4.89;81.21
55456;BME280;63021;52.836;6.376;2023-12-14T09:28:09;101907.84;;;4.93;81.38
55456;BME280;63021;52.836;6.376;2023-12-14T09:30:35;101931.72;;;5.07;80.83
55456;BME280;63021;52.836;6.376;2023-12-14T09:33:00;101929.13;;;5.06;81.15
55456;BME280;63021;52.836;6.376;2023-12-14T09:35:25;101936.22;;;5.05;80.92
55456;BME280;63021;52.836;6.376;2023-12-14T09:37:51;101946.69;;;5.07;80.86
55456;BME280;63021;52.836;6.376;2023-12-14T09:40:17;101946.69;;;5.07;81.05
55456;BME280;63021;52.836;6.376;2023-12-14T09:42:44;101933.38;;;5.08;80.95
55456;BME280;63021;52.836;6.376;2023-12-14T09:45:10;101930.84;;;5.07;81.11
55456;BME280;63021;52.836;6.376;2023-12-14T09:47:39;101952.56;;;5.12;80.70
55456;BME280;63021;52.836;6.376;2023-12-14T09:50:05;101945.50;;;5.12;80.53
55456;BME280;63021;52.836;6.376;2023-12-14T09:52:31;101958.78;;;5.11;81.09
55456;BME280;63021;52.836;6.376;2023-12-14T09:54:58;101966.44;;;5.15;80.79
55456;BME280;63021;52.836;6.376;2023-12-14T09:57:23;101941.91;;;5.13;80.63
55456;BME280;63021;52.836;6.376;2023-12-14T09:59:55;101954.69;;;5.21;80.58
55456;BME280;63021;52.836;6.376;2023-12-14T10:02:25;101956.41;;;5.22;80.78
55456;BME280;63021;52.836;6.376;2023-12-14T10:04:51;101967.97;;;5.19;80.92
55456;BME280;63021;52.836;6.376;2023-12-14T10:07:18;101950.69;;;5.14;80.40
55456;BME280;63021;52.836;6.376;2023-12-14T10:09:43;101958.13;;;5.23;80.40
55456;BME280;63021;52.836;6.376;2023-12-14T10:12:10;101959.66;;;5.27;80.61
55456;BME280;63021;52.836;6.376;2023-12-14T10:14:36;101974.53;;;5.28;80.83
55456;BME280;63021;52.836;6.376;2023-12-14T10:17:20;101975.97;;;5.34;80.92
55456;BME280;63021;52.836;6.376;2023-12-14T10:19:47;101973.34;;;5.34;80.19
55456;BME280;63021;52.836;6.376;2023-12-14T10:22:14;101982.63;;;5.41;81.00
55456;BME280;63021;52.836;6.376;2023-12-14T10:24:44;101974.44;;;5.46;80.64
55456;BME280;63021;52.836;6.376;2023-12-14T10:27:10;101977.69;;;5.51;80.73
55456;BME280;63021;52.836;6.376;2023-12-14T10:29:39;101976.50;;;5.57;80.60
55456;BME280;63021;52.836;6.376;2023-12-14T10:32:06;101986.78;;;5.61;80.05
55456;BME280;63021;52.836;6.376;2023-12-14T10:34:34;101977.00;;;5.63;80.04
55456;BME280;63021;52.836;6.376;2023-12-14T10:37:01;101993.53;;;5.67;80.22
55456;BME280;63021;52.836;6.376;2023-12-14T10:39:27;101969.84;;;5.65;80.02
55456;BME280;63021;52.836;6.376;2023-12-14T10:41:56;101982.59;;;5.73;79.88
55456;BME280;63021;52.836;6.376;2023-12-14T10:44:26;101994.59;;;5.79;80.25
55456;BME280;63021;52.836;6.376;2023-12-14T10:46:55;101988.22;;;5.83;79.72
55456;BME280;63021;52.836;6.376;2023-12-14T10:49:25;101990.69;;;5.86;80.07
55456;BME280;63021;52.836;6.376;2023-12-14T10:51:56;101998.38;;;5.90;79.65
55456;BME280;63021;52.836;6.376;2023-12-14T10:54:26;102008.16;;;5.88;79.44
55456;BME280;63021;52.836;6.376;2023-12-14T10:56:55;102030.22;;;5.87;79.65
55456;BME280;63021;52.836;6.376;2023-12-14T10:59:21;102015.06;;;5.91;79.45
55456;BME280;63021;52.836;6.376;2023-12-14T11:01:52;102001.44;;;5.83;79.26
55456;BME280;63021;52.836;6.376;2023-12-14T11:04:18;102018.53;;;5.92;79.16
55456;BME280;63021;52.836;6.376;2023-12-14T11:06:45;102017.53;;;5.94;79.09
55456;BME280;63021;52.836;6.376;2023-12-14T11:09:13;102001.00;;;5.90;79.33
55456;BME280;63021;52.836;6.376;2023-12-14T11:14:24;101998.59;;;6.02;79.45
55456;BME280;63021;52.836;6.376;2023-12-14T11:16:54;102005.69;;;6.01;79.31
55456;BME280;63021;52.836;6.376;2023-12-14T11:24:13;102004.66;;;6.04;78.71
55456;BME280;63021;52.836;6.376;2023-12-14T11:26:40;102010.53;;;6.09;79.22
55456;BME280;63021;52.836;6.376;2023-12-14T11:29:06;102019.97;;;6.13;78.67
55456;BME280;63021;52.836;6.376;2023-12-14T11:31:32;102008.47;;;6.14;78.98
55456;BME280;63021;52.836;6.376;2023-12-14T11:33:59;102046.94;;;6.20;78.99
55456;BME280;63021;52.836;6.376;2023-12-14T11:36:26;102023.88;;;6.22;78.33
55456;BME280;63021;52.836;6.376;2023-12-14T11:38:51;102051.28;;;6.21;78.75
55456;BME280;63021;52.836;6.376;2023-12-14T11:41:21;102043.91;;;6.26;78.31
55456;BME280;63021;52.836;6.376;2023-12-14T11:43:46;102033.16;;;6.29;78.88
55456;BME280;63021;52.836;6.376;2023-12-14T11:46:12;102033.16;;;6.29;78.40
55456;BME280;63021;52.836;6.376;2023-12-14T11:48:39;102020.41;;;6.21;78.84
55456;BME280;63021;52.836;6.376;2023-12-14T11:51:05;102036.41;;;6.34;78.27
55456;BME280;63021;52.836;6.376;2023-12-14T11:53:30;102043.50;;;6.34;78.51
55456;BME280;63021;52.836;6.376;2023-12-14T11:55:56;102054.72;;;6.37;78.15
55456;BME280;63021;52.836;6.376;2023-12-14T11:58:24;102066.84;;;6.41;77.97
55456;BME280;63021;52.836;6.376;2023-12-14T12:00:50;102063.34;;;6.41;78.48
55456;BME280;63021;52.836;6.376;2023-12-14T12:03:20;102072.13;;;6.41;78.10
55456;BME280;63021;52.836;6.376;2023-12-14T12:05:51;102069.56;;;6.40;77.64
55456;BME280;63021;52.836;6.376;2023-12-14T12:08:19;102066.09;;;6.39;77.55
55456;BME280;63021;52.836;6.376;2023-12-14T12:10:45;102066.94;;;6.40;77.58
55456;BME280;63021;52.836;6.376;2023-12-14T12:13:16;102059.94;;;6.39;77.75
55456;BME280;63021;52.836;6.376;2023-12-14T12:15:42;102061.91;;;6.35;77.55
55456;BME280;63021;52.836;6.376;2023-12-14T12:18:12;102046.78;;;6.37;77.61
55456;BME280;63021;52.836;6.376;2023-12-14T12:20:38;102060.72;;;6.41;77.69
55456;BME280;63021;52.836;6.376;2023-12-14T12:23:03;102083.81;;;6.37;77.27
55456;BME280;63021;52.836;6.376;2023-12-14T12:25:30;102068.66;;;6.41;77.63
55456;BME280;63021;52.836;6.376;2023-12-14T12:27:59;102069.47;;;6.41;77.21
55456;BME280;63021;52.836;6.376;2023-12-14T12:30:25;102069.47;;;6.41;77.33
55456;BME280;63021;52.836;6.376;2023-12-14T12:32:51;102063.44;;;6.39;77.40
55456;BME280;63021;52.836;6.376;2023-12-14T12:35:18;102064.19;;;6.41;77.71
55456;BME280;63021;52.836;6.376;2023-12-14T12:37:43;102065.03;;;6.42;77.49
55456;BME280;63021;52.836;6.376;2023-12-14T12:40:11;102063.25;;;6.43;77.45
55456;BME280;63021;52.836;6.376;2023-12-14T12:42:39;102075.53;;;6.44;77.54
55456;BME280;63021;52.836;6.376;2023-12-14T12:45:05;102091.47;;;6.42;77.40
55456;BME280;63021;52.836;6.376;2023-12-14T12:47:30;102085.34;;;6.41;77.65
55456;BME280;63021;52.836;6.376;2023-12-14T12:49:56;102076.56;;;6.41;77.40
55456;BME280;63021;52.836;6.376;2023-12-14T12:52:21;102088.75;;;6.44;77.33
55456;BME280;63021;52.836;6.376;2023-12-14T12:54:47;102081.97;;;6.39;77.06
55456;BME280;63021;52.836;6.376;2023-12-14T12:57:12;102070.88;;;6.33;77.17
55456;BME280;63021;52.836;6.376;2023-12-14T12:59:37;102091.47;;;6.42;77.28
55456;BME280;63021;52.836;6.376;2023-12-14T13:02:03;102082.72;;;6.41;77.27